createdAt,value
2022-08-19T00:01:03.583Z,10.70
2022-08-19T00:06:03.354Z,12.02
2022-08-19T00:08:33.537Z,11.32
2022-08-19T00:11:04.179Z,13.23
2022-08-19T00:13:34.323Z,11.57
2022-08-19T00:16:08.166Z,8.98
2022-08-19T00:18:38.121Z,10.57
2022-08-19T00:21:10.966Z,10.25
2022-08-19T00:23:40.917Z,9.82
2022-08-19T00:26:14.799Z,8.85
2022-08-19T00:28:44.878Z,9.27
2022-08-19T00:33:45.467Z,8.38
2022-08-19T00:36:16.236Z,8.57
2022-08-19T00:38:46.227Z,10.18
2022-08-19T00:41:19.650Z,8.70
2022-08-19T00:44:12.534Z,9.50
2022-08-19T00:46:55.664Z,6.95
2022-08-19T00:49:39.979Z,11.75
2022-08-19T00:52:20.814Z,8.30
2022-08-19T00:54:52.780Z,8.68
2022-08-19T00:57:32.733Z,9.73
2022-08-19T01:00:04.427Z,8.05
2022-08-19T01:02:35.732Z,10.82
2022-08-19T01:05:10.569Z,9.27
2022-08-19T01:07:42.950Z,12.05
2022-08-19T01:10:16.815Z,8.13
2022-08-19T01:12:49.639Z,10.57
2022-08-19T01:15:25.178Z,6.05
2022-08-19T01:17:57.019Z,7.38
2022-08-19T01:20:27.188Z,10.02
2022-08-19T01:23:01.214Z,8.20
2022-08-19T01:25:37.799Z,9.98
2022-08-19T01:28:10.928Z,8.75
2022-08-19T01:30:44.424Z,8.88
2022-08-19T01:33:21.955Z,6.50
2022-08-19T01:35:53.534Z,7.20
2022-08-19T01:38:27.748Z,7.18
2022-08-19T01:40:58.599Z,6.90
2022-08-19T01:43:28.859Z,8.77
2022-08-19T01:45:59.581Z,7.38
2022-08-19T01:48:32.556Z,6.85
2022-08-19T01:51:03.007Z,7.90
2022-08-19T01:53:33.792Z,7.10
2022-08-19T01:56:05.543Z,5.93
2022-08-19T01:58:42.989Z,5.47
2022-08-19T02:01:13.539Z,3.75
2022-08-19T02:03:43.720Z,5.88
2022-08-19T02:06:14.490Z,5.32
2022-08-19T02:08:44.702Z,7.32
2022-08-19T02:11:36.094Z,3.30
2022-08-19T02:14:09.935Z,3.13
2022-08-19T02:16:40.637Z,4.32
2022-08-19T02:19:10.599Z,2.65
2022-08-19T02:21:41.148Z,3.05
2022-08-19T02:24:11.233Z,3.92
2022-08-19T02:26:41.953Z,4.30
2022-08-19T02:29:13.340Z,3.47
2022-08-19T02:31:43.916Z,2.72
2022-08-19T02:34:14.361Z,3.10
2022-08-19T02:36:51.783Z,4.05
2022-08-19T02:39:22.729Z,2.83
2022-08-19T02:41:54.294Z,4.35
2022-08-19T02:44:31.030Z,4.13
2022-08-19T02:49:34.639Z,4.88
2022-08-19T02:52:06.275Z,4.60
2022-08-19T02:54:36.738Z,4.38
2022-08-19T02:57:08.430Z,4.57
2022-08-19T02:59:38.774Z,3.10
2022-08-19T03:04:39.955Z,3.13
2022-08-19T03:07:11.609Z,2.72
2022-08-19T03:09:42.258Z,2.75
2022-08-19T03:12:13.711Z,2.38
2022-08-19T03:14:44.122Z,3.75
2022-08-19T03:17:14.883Z,3.47
2022-08-19T03:19:46.095Z,3.13
2022-08-19T03:22:16.714Z,4.55
2022-08-19T03:24:47.535Z,3.13
2022-08-19T03:27:19.508Z,1.67
2022-08-19T03:29:50.201Z,2.78
2022-08-19T03:32:33.060Z,2.17
2022-08-19T03:35:04.993Z,2.20
2022-08-19T03:37:37.142Z,1.55
2022-08-19T03:40:07.898Z,2.72
2022-08-19T03:42:58.616Z,2.17
2022-08-19T03:47:59.355Z,5.07
2022-08-19T03:50:29.673Z,3.33
2022-08-19T03:53:02.020Z,3.63
2022-08-19T03:55:32.684Z,2.38
2022-08-19T03:58:03.399Z,1.98
2022-08-19T04:00:35.653Z,3.08
2022-08-19T04:03:06.272Z,3.95
2022-08-19T04:05:36.545Z,4.78
2022-08-19T04:08:10.801Z,3.58
2022-08-19T04:10:45.965Z,5.45
2022-08-19T04:13:20.795Z,4.65
2022-08-19T04:15:52.070Z,2.67
2022-08-19T04:18:22.596Z,3.05
2022-08-19T04:20:54.822Z,3.15
2022-08-19T04:23:26.238Z,4.00
2022-08-19T04:25:57.414Z,9.10
2022-08-19T04:28:28.558Z,1.88
2022-08-19T04:30:59.431Z,3.30
2022-08-19T04:33:30.720Z,2.38
2022-08-19T04:36:04.142Z,2.03
2022-08-19T04:38:34.641Z,5.85
2022-08-19T04:41:24.308Z,7.03
2022-08-19T04:43:54.830Z,6.07
2022-08-19T04:46:39.274Z,5.13
2022-08-19T04:49:13.662Z,4.43
2022-08-19T04:51:46.562Z,4.13
2022-08-19T04:54:37.157Z,2.58
2022-08-19T04:57:12.481Z,1.23
2022-08-19T04:59:43.242Z,4.90
2022-08-19T05:02:13.783Z,4.00
2022-08-19T05:04:44.491Z,8.20
2022-08-19T05:07:18.933Z,6.70
2022-08-19T05:09:58.847Z,2.75
2022-08-19T05:12:31.680Z,3.97
2022-08-19T05:15:04.399Z,3.40
2022-08-19T05:17:38.368Z,2.92
2022-08-19T05:20:50.130Z,1.85
2022-08-19T05:23:22.775Z,4.78
2022-08-19T05:25:54.091Z,7.72
2022-08-19T05:28:24.681Z,1.75
2022-08-19T05:30:57.487Z,2.35
2022-08-19T05:33:28.225Z,2.80
2022-08-19T05:35:58.489Z,2.92
2022-08-19T05:38:29.593Z,3.80
2022-08-19T05:41:01.072Z,2.67
2022-08-19T05:43:32.038Z,4.32
2022-08-19T05:46:02.181Z,1.90
2022-08-19T05:48:33.597Z,1.60
2022-08-19T05:51:08.616Z,3.17
2022-08-19T05:53:39.364Z,2.45
2022-08-19T05:56:12.775Z,2.05
2022-08-19T05:58:44.300Z,1.88
2022-08-19T06:01:20.533Z,1.75
2022-08-19T06:03:51.133Z,1.50
2022-08-19T06:06:22.527Z,1.80
2022-08-19T06:08:53.070Z,1.83
2022-08-19T06:11:36.851Z,2.28
2022-08-19T06:14:17.762Z,3.47
2022-08-19T06:16:48.546Z,1.65
2022-08-19T06:21:52.706Z,1.65
2022-08-19T06:24:26.607Z,2.92
2022-08-19T06:27:00.993Z,1.67
2022-08-19T06:29:33.519Z,1.33
2022-08-19T06:32:05.763Z,2.03
2022-08-19T06:34:37.807Z,0.90
2022-08-19T06:37:07.998Z,2.90
2022-08-19T06:39:40.746Z,2.92
2022-08-19T06:42:13.803Z,1.42
2022-08-19T06:44:48.788Z,1.45
2022-08-19T06:47:25.175Z,1.10
2022-08-19T06:50:05.555Z,2.78
2022-08-19T06:52:38.375Z,2.75
2022-08-19T06:55:09.789Z,1.00
2022-08-19T07:00:13.769Z,1.50
2022-08-19T07:02:49.822Z,1.75
2022-08-19T07:05:27.606Z,4.70
2022-08-19T07:08:02.897Z,1.55
2022-08-19T07:10:36.143Z,2.42
2022-08-19T07:13:07.922Z,3.10
2022-08-19T07:15:39.991Z,2.80
2022-08-19T07:18:11.961Z,2.35
2022-08-19T07:20:43.893Z,1.33
2022-08-19T07:23:16.245Z,3.67
2022-08-19T07:25:53.025Z,2.80
2022-08-19T07:28:25.101Z,3.30
2022-08-19T07:30:55.596Z,1.70
2022-08-19T07:35:58.224Z,1.90
2022-08-19T07:38:28.822Z,4.07
2022-08-19T07:40:59.115Z,2.63
2022-08-19T07:43:34.847Z,2.47
2022-08-19T07:46:05.953Z,2.17
2022-08-19T07:48:36.575Z,2.80
2022-08-19T07:51:09.655Z,1.98
2022-08-19T07:53:40.936Z,0.80
2022-08-19T07:58:45.813Z,2.30
2022-08-19T08:01:19.532Z,3.03
2022-08-19T08:04:10.570Z,2.72
2022-08-19T08:06:59.070Z,0.52
2022-08-19T08:09:33.868Z,4.45
2022-08-19T08:12:33.225Z,2.05
2022-08-19T08:15:04.358Z,3.63
2022-08-19T08:17:49.570Z,0.98
2022-08-19T08:20:22.486Z,1.02
2022-08-19T08:23:10.851Z,3.33
2022-08-19T08:25:41.565Z,2.38
2022-08-19T08:28:17.890Z,2.05
2022-08-19T08:30:50.602Z,4.57
2022-08-19T08:33:30.087Z,1.13
2022-08-19T08:36:07.953Z,2.70
2022-08-19T08:38:41.959Z,1.90
2022-08-19T08:41:31.247Z,1.30
2022-08-19T08:44:03.187Z,1.45
2022-08-19T08:46:42.207Z,2.50
2022-08-19T08:49:33.985Z,2.30
2022-08-19T08:52:12.400Z,2.13
2022-08-19T08:54:54.861Z,1.95
2022-08-19T08:57:56.927Z,2.25
2022-08-19T09:00:34.676Z,3.28
2022-08-19T09:03:08.486Z,1.67
2022-08-19T09:05:59.799Z,1.55
2022-08-19T09:08:36.197Z,0.95
2022-08-19T09:11:42.797Z,2.30
2022-08-19T09:14:51.764Z,3.80
2022-08-19T09:17:32.957Z,1.25
2022-08-19T09:20:10.411Z,3.70
2022-08-19T09:22:42.938Z,1.85
2022-08-19T09:25:16.970Z,4.60
2022-08-19T09:28:02.657Z,3.05
2022-08-19T09:30:44.291Z,4.10
2022-08-19T09:33:14.476Z,3.80
2022-08-19T09:35:53.705Z,4.45
2022-08-19T09:38:24.584Z,3.45
2022-08-19T09:40:55.078Z,2.85
2022-08-19T09:43:33.333Z,3.38
2022-08-19T09:46:06.928Z,4.68
2022-08-19T09:48:38.145Z,5.40
2022-08-19T09:51:18.598Z,3.95
2022-08-19T09:53:53.714Z,5.55
2022-08-19T09:56:25.167Z,5.15
2022-08-19T09:58:55.686Z,8.05
2022-08-19T10:03:59.040Z,6.95
2022-08-19T10:06:43.967Z,8.73
2022-08-19T10:09:26.290Z,8.15
2022-08-19T10:12:06.694Z,5.18
2022-08-19T10:14:41.598Z,4.22
2022-08-19T10:17:19.192Z,3.55
2022-08-19T10:19:55.472Z,3.35
2022-08-19T10:22:29.294Z,2.65
2022-08-19T10:25:01.575Z,5.00
2022-08-19T10:27:33.080Z,6.47
2022-08-19T10:30:09.985Z,5.03
2022-08-19T10:32:46.327Z,3.25
2022-08-19T10:35:21.954Z,5.68
2022-08-19T10:37:57.271Z,4.95
2022-08-19T10:40:30.964Z,4.90
2022-08-19T10:43:01.570Z,7.15
2022-08-19T10:45:31.816Z,5.57
2022-08-19T10:48:03.481Z,5.43
2022-08-19T10:50:52.440Z,5.22
2022-08-19T10:53:27.475Z,4.78
2022-08-19T10:56:16.243Z,6.07
2022-08-19T10:58:46.847Z,6.25
2022-08-19T11:01:17.159Z,5.90
2022-08-19T11:03:47.835Z,9.32
2022-08-19T11:06:18.116Z,10.88
2022-08-19T11:11:18.737Z,11.18
2022-08-19T11:13:50.044Z,10.85
2022-08-19T11:16:23.825Z,8.82
2022-08-19T11:18:57.359Z,8.27
2022-08-19T11:21:30.292Z,7.15
2022-08-19T11:24:03.737Z,5.80
2022-08-19T11:26:34.479Z,4.18
2022-08-19T11:29:05.720Z,6.20
2022-08-19T11:31:39.287Z,5.10
2022-08-19T11:34:12.601Z,5.57
2022-08-19T11:36:46.891Z,5.30
2022-08-19T11:39:20.387Z,4.20
2022-08-19T11:41:50.962Z,4.80
2022-08-19T11:44:22.986Z,2.53
2022-08-19T11:46:54.528Z,3.28
2022-08-19T11:49:25.451Z,4.53
2022-08-19T11:51:56.277Z,4.05
2022-08-19T11:54:27.210Z,5.18
2022-08-19T11:56:58.394Z,5.07
2022-08-19T11:59:32.585Z,6.85
2022-08-19T12:02:02.880Z,4.13
2022-08-19T12:04:33.562Z,7.55
2022-08-19T12:07:03.995Z,6.93
2022-08-19T12:09:36.483Z,5.43
2022-08-19T12:12:14.098Z,6.05
2022-08-19T12:14:45.177Z,3.28
2022-08-19T12:17:18.502Z,5.95
2022-08-19T12:19:49.117Z,6.18
2022-08-19T12:22:19.370Z,7.45
2022-08-19T12:24:52.893Z,3.65
2022-08-19T12:27:32.195Z,6.45
2022-08-19T12:30:13.661Z,5.05
2022-08-19T12:32:47.814Z,10.10
2022-08-19T12:35:18.753Z,4.35
2022-08-19T12:37:56.742Z,5.45
2022-08-19T12:40:28.633Z,5.35
2022-08-19T12:42:59.061Z,5.00
2022-08-19T12:45:30.792Z,4.72
2022-08-19T12:48:01.333Z,6.03
2022-08-19T12:53:21.478Z,5.20
2022-08-19T12:56:02.145Z,5.00
2022-08-19T12:58:33.165Z,3.78
2022-08-19T13:01:18.403Z,3.97
2022-08-19T13:03:56.480Z,3.15
2022-08-19T13:06:27.572Z,3.72
2022-08-19T13:09:00.486Z,3.25
2022-08-19T13:11:35.880Z,5.85
2022-08-19T13:14:08.871Z,2.67
2022-08-19T13:16:44.752Z,7.82
2022-08-19T13:19:25.681Z,5.00
2022-08-19T13:22:02.727Z,4.40
2022-08-19T13:24:35.340Z,2.85
2022-08-19T13:27:09.083Z,2.90
2022-08-19T13:30:02.168Z,3.45
2022-08-19T13:32:52.373Z,4.10
2022-08-19T13:35:25.344Z,4.47
2022-08-19T13:37:57.129Z,7.53
2022-08-19T13:40:34.638Z,3.80
2022-08-19T13:43:12.656Z,2.35
2022-08-19T13:46:01.041Z,3.28
2022-08-19T13:48:33.208Z,2.47
2022-08-19T13:51:10.379Z,4.35
2022-08-19T13:53:47.900Z,5.43
2022-08-19T13:56:26.297Z,6.18
2022-08-19T13:58:59.600Z,3.60
2022-08-19T14:01:36.580Z,4.03
2022-08-19T14:04:10.501Z,3.42
2022-08-19T14:06:41.874Z,3.90
2022-08-19T14:09:12.584Z,3.25
2022-08-19T14:11:42.562Z,6.53
2022-08-19T14:14:16.346Z,2.30
2022-08-19T14:16:46.817Z,5.50
2022-08-19T14:19:17.547Z,4.25
2022-08-19T14:21:47.801Z,4.32
2022-08-19T14:24:18.468Z,4.97
2022-08-19T14:26:48.906Z,4.30
2022-08-19T14:29:19.648Z,6.82
2022-08-19T14:31:50.585Z,3.13
2022-08-19T14:34:21.325Z,3.15
2022-08-19T14:36:51.542Z,3.50
2022-08-19T14:39:21.601Z,4.63
2022-08-19T14:41:56.027Z,4.20
2022-08-19T14:44:28.145Z,2.80
2022-08-19T14:47:00.422Z,3.50
2022-08-19T14:49:48.302Z,3.60
2022-08-19T14:52:22.222Z,4.07
2022-08-19T14:54:58.244Z,2.63
2022-08-19T14:57:35.860Z,2.92
2022-08-19T15:00:26.923Z,4.15
2022-08-19T15:03:04.857Z,5.10
2022-08-19T15:05:38.556Z,4.55
2022-08-19T15:08:09.339Z,5.22
2022-08-19T15:10:41.854Z,3.47
2022-08-19T15:13:12.610Z,2.90
2022-08-19T15:15:42.810Z,4.40
2022-08-19T15:18:14.401Z,3.00
2022-08-19T15:20:46.744Z,2.65
2022-08-19T15:23:20.094Z,2.67
2022-08-19T15:25:50.847Z,2.05
2022-08-19T15:28:21.622Z,2.65
2022-08-19T15:30:52.251Z,2.25
2022-08-19T15:33:24.091Z,6.03
2022-08-19T15:35:55.202Z,3.72
2022-08-19T15:38:27.995Z,5.22
2022-08-19T15:41:19.657Z,5.00
2022-08-19T15:43:52.563Z,1.27
2022-08-19T15:46:25.906Z,2.63
2022-08-19T15:48:59.785Z,2.80
2022-08-19T15:51:36.813Z,2.45
2022-08-19T15:56:58.734Z,3.20
2022-08-19T15:59:47.900Z,3.03
2022-08-19T16:02:37.964Z,2.70
2022-08-19T16:05:30.941Z,4.18
2022-08-19T16:08:01.262Z,2.67
2022-08-19T16:10:32.265Z,5.90
2022-08-19T16:13:02.525Z,5.38
2022-08-19T16:15:34.872Z,2.17
2022-08-19T16:18:05.785Z,3.60
2022-08-19T16:20:36.519Z,4.15
2022-08-19T16:23:06.778Z,1.58
2022-08-19T16:25:37.530Z,4.75
2022-08-19T16:28:11.565Z,1.83
2022-08-19T16:30:42.957Z,2.42
2022-08-19T16:33:23.099Z,4.78
2022-08-19T16:36:00.268Z,2.75
2022-08-19T16:38:38.727Z,2.35
2022-08-19T16:41:09.248Z,4.32
2022-08-19T16:43:40.048Z,3.17
2022-08-19T16:46:13.841Z,2.92
2022-08-19T16:48:51.465Z,3.63
2022-08-19T16:51:23.769Z,4.10
2022-08-19T16:53:54.548Z,3.83
2022-08-19T16:56:26.690Z,3.38
2022-08-19T16:58:57.445Z,4.55
2022-08-19T17:01:29.398Z,3.28
2022-08-19T17:03:59.758Z,2.72
2022-08-19T17:06:32.275Z,1.98
2022-08-19T17:09:03.655Z,1.27
2022-08-19T17:11:35.041Z,3.38
2022-08-19T17:14:06.761Z,3.35
2022-08-19T17:16:38.747Z,1.80
2022-08-19T17:19:09.671Z,1.77
2022-08-19T17:21:41.846Z,2.35
2022-08-19T17:24:11.910Z,3.20
2022-08-19T17:26:42.759Z,2.30
2022-08-19T17:29:12.928Z,1.05
2022-08-19T17:31:43.479Z,5.10
2022-08-19T17:34:13.275Z,2.70
2022-08-19T17:36:43.791Z,5.20
2022-08-19T17:39:14.662Z,1.98
2022-08-19T17:41:45.749Z,3.03
2022-08-19T17:44:15.850Z,2.03
2022-08-19T17:46:47.813Z,1.77
2022-08-19T17:49:19.035Z,2.33
2022-08-19T17:51:50.711Z,2.45
2022-08-19T17:54:21.419Z,3.00
2022-08-19T17:56:52.362Z,4.00
2022-08-19T17:59:22.418Z,1.90
2022-08-19T18:01:57.483Z,3.03
2022-08-19T18:04:27.984Z,1.25
2022-08-19T18:07:00.610Z,4.10
2022-08-19T18:09:41.769Z,3.05
2022-08-19T18:12:18.151Z,2.45
2022-08-19T18:14:49.129Z,2.88
2022-08-19T18:17:24.034Z,3.83
2022-08-19T18:19:54.058Z,4.28
2022-08-19T18:22:28.931Z,3.15
2022-08-19T18:25:00.260Z,2.17
2022-08-19T18:27:30.805Z,2.78
2022-08-19T18:30:01.189Z,2.55
2022-08-19T18:32:35.415Z,2.33
2022-08-19T18:35:12.200Z,3.05
2022-08-19T18:37:45.211Z,2.40
2022-08-19T18:40:39.283Z,2.75
2022-08-19T18:43:16.884Z,1.23
2022-08-19T18:46:07.149Z,1.98
2022-08-19T18:48:57.537Z,2.10
2022-08-19T18:51:31.298Z,2.17
2022-08-19T18:54:02.514Z,2.88
2022-08-19T18:56:35.966Z,1.38
2022-08-19T18:59:06.458Z,2.28
2022-08-19T19:01:39.803Z,2.83
2022-08-19T19:04:14.547Z,1.67
2022-08-19T19:06:45.135Z,1.85
2022-08-19T19:09:20.110Z,1.10
2022-08-19T19:11:53.691Z,0.77
2022-08-19T19:14:48.219Z,2.78
2022-08-19T19:17:19.092Z,2.03
2022-08-19T19:19:49.632Z,1.88
2022-08-19T19:22:21.919Z,3.03
2022-08-19T19:24:53.216Z,1.95
2022-08-19T19:27:23.807Z,3.80
2022-08-19T19:29:54.501Z,2.80
2022-08-19T19:32:38.973Z,1.23
2022-08-19T19:35:13.701Z,2.25
2022-08-19T19:37:44.842Z,2.35
2022-08-19T19:40:15.615Z,3.08
2022-08-19T19:42:46.406Z,3.90
2022-08-19T19:45:18.311Z,4.32
2022-08-19T19:47:51.422Z,2.85
2022-08-19T19:50:22.098Z,1.80
2022-08-19T19:52:52.116Z,2.88
2022-08-19T19:55:22.694Z,3.08
2022-08-19T19:57:54.791Z,2.47
2022-08-19T20:00:26.479Z,3.25
2022-08-19T20:02:57.498Z,2.05
2022-08-19T20:05:28.353Z,3.55
2022-08-19T20:08:16.898Z,3.10
2022-08-19T20:10:49.667Z,4.72
2022-08-19T20:13:21.047Z,3.60
2022-08-19T20:15:52.438Z,2.28
2022-08-19T20:18:22.678Z,2.10
2022-08-19T20:20:53.843Z,3.33
2022-08-19T20:23:25.112Z,3.75
2022-08-19T20:25:55.622Z,2.20
2022-08-19T20:30:56.329Z,1.83
2022-08-19T20:35:56.763Z,3.80
2022-08-19T20:40:57.356Z,3.80
2022-08-19T20:43:27.205Z,4.28
2022-08-19T20:45:57.884Z,5.07
2022-08-19T20:48:28.363Z,4.45
2022-08-19T20:50:59.338Z,4.97
2022-08-19T20:53:30.203Z,7.68
2022-08-19T20:56:00.724Z,6.15
2022-08-19T20:58:32.883Z,5.28
2022-08-19T21:01:04.856Z,4.72
2022-08-19T21:03:42.439Z,2.90
2022-08-19T21:06:15.666Z,5.05
2022-08-19T21:08:46.237Z,2.85
2022-08-19T21:11:20.650Z,5.28
2022-08-19T21:13:50.922Z,3.67
2022-08-19T21:16:21.423Z,4.18
2022-08-19T21:18:51.251Z,3.63
2022-08-19T21:21:21.839Z,3.47
2022-08-19T21:23:51.916Z,4.43
2022-08-19T21:26:22.490Z,5.57
2022-08-19T21:28:52.338Z,4.20
2022-08-19T21:31:23.077Z,2.75
2022-08-19T21:36:23.106Z,5.35
2022-08-19T21:38:53.118Z,5.05
2022-08-19T21:41:24.611Z,3.35
2022-08-19T21:43:55.072Z,2.88
2022-08-19T21:46:25.618Z,3.97
2022-08-19T21:48:56.005Z,4.40
2022-08-19T21:51:26.563Z,2.13
2022-08-19T21:53:57.584Z,4.38
2022-08-19T21:56:28.139Z,3.08
2022-08-19T21:58:58.189Z,3.30
2022-08-19T22:04:00.767Z,2.72
2022-08-19T22:06:31.278Z,2.90
2022-08-19T22:09:01.298Z,2.38
2022-08-19T22:14:01.207Z,2.38
2022-08-19T22:16:34.992Z,1.92
2022-08-19T22:19:05.090Z,2.35
2022-08-19T22:21:40.677Z,3.05
2022-08-19T22:24:11.324Z,4.35
2022-08-19T22:26:41.898Z,3.55
2022-08-19T22:31:51.052Z,3.83
2022-08-19T22:34:25.877Z,2.75
2022-08-19T22:36:58.543Z,4.45
2022-08-19T22:39:28.649Z,3.25
2022-08-19T22:41:59.232Z,4.85
2022-08-19T22:44:29.234Z,1.63
2022-08-19T22:46:59.807Z,2.45
2022-08-19T22:49:32.808Z,4.68
2022-08-19T22:52:23.176Z,3.10
2022-08-19T22:54:55.893Z,4.13
2022-08-19T22:57:26.530Z,2.03
2022-08-19T23:00:01.001Z,4.65
2022-08-19T23:02:39.487Z,3.05
2022-08-19T23:05:24.626Z,5.40
2022-08-19T23:07:58.083Z,2.25
2022-08-19T23:10:30.129Z,2.25
2022-08-19T23:13:01.718Z,1.42
2022-08-19T23:15:34.472Z,2.90
2022-08-19T23:18:06.546Z,2.35
2022-08-19T23:20:39.899Z,4.57
2022-08-19T23:23:13.806Z,3.03
2022-08-19T23:25:43.841Z,3.75
2022-08-19T23:31:02.201Z,3.97
2022-08-19T23:36:23.655Z,6.38
2022-08-19T23:38:54.379Z,8.70
2022-08-19T23:41:24.880Z,7.93
2022-08-19T23:43:56.039Z,7.88
2022-08-19T23:46:28.197Z,7.00
2022-08-19T23:49:00.851Z,4.10
2022-08-19T23:51:30.876Z,4.57
2022-08-19T23:54:01.317Z,3.03
2022-08-19T23:56:32.024Z,2.72
2022-08-19T23:59:02.503Z,1.90
